Time;durP1;ratioP1;P1;durP2;ratioP2;P2;SDS_P1;SDS_P2;PMS_P1;PMS_P2;Temp;Humidity;BMP_temperature;BMP_pressure;BME280_temperature;BME280_humidity;BME280_pressure;Samples;Min_cycle;Max_cycle;Signal;HPM_P1;HPM_P2
2022/01/03 00:01:28;;;;;;;9.40;1.15;;;8.10;99.90;;;;;;5109988;28;20546;-83
2022/01/03 00:03:55;;;;;;;13.38;1.85;;;8.20;99.90;;;;;;5108326;28;20073;-85
2022/01/03 00:06:21;;;;;;;13.05;1.33;;;8.20;99.90;;;;;;5106179;28;20043;-80
2022/01/03 00:08:47;;;;;;;12.90;1.05;;;8.20;99.90;;;;;;5096428;28;20047;-83
2022/01/03 00:11:16;;;;;;;14.95;2.25;;;8.30;99.90;;;;;;5094057;28;20074;-80
2022/01/03 00:13:46;;;;;;;17.17;2.15;;;8.30;99.90;;;;;;5087925;28;20486;-83
2022/01/03 00:16:12;;;;;;;6.60;0.85;;;8.50;99.90;;;;;;5110712;28;20398;-83
2022/01/03 00:18:39;;;;;;;9.40;1.35;;;8.50;99.90;;;;;;5113214;28;20521;-83
2022/01/03 00:21:10;;;;;;;14.43;1.92;;;8.50;99.90;;;;;;5096047;28;20043;-83
2022/01/03 00:23:38;;;;;;;10.88;1.50;;;8.60;99.90;;;;;;5114128;28;20402;-83
2022/01/03 00:26:07;;;;;;;12.65;1.80;;;8.50;99.90;;;;;;5088377;28;20070;-84
2022/01/03 00:28:35;;;;;;;7.93;1.20;;;8.60;99.90;;;;;;5095542;28;20058;-82
2022/01/03 00:31:03;;;;;;;21.52;1.45;;;8.90;99.90;;;;;;5113631;28;20104;-81
2022/01/03 00:33:30;;;;;;;11.98;1.92;;;8.60;99.90;;;;;;5109472;28;20088;-81
2022/01/03 00:35:59;;;;;;;15.23;1.45;;;8.40;99.90;;;;;;5110650;28;20829;-87
2022/01/03 00:38:27;;;;;;;11.63;1.60;;;9.60;99.90;;;;;;5108326;27;20035;-83
2022/01/03 00:40:53;;;;;;;17.63;2.30;;;8.60;99.90;;;;;;5096635;27;20039;-85
2022/01/03 00:43:19;;;;;;;9.98;1.95;;;8.70;99.90;;;;;;5114619;27;20092;-80
2022/01/03 00:45:45;;;;;;;17.98;1.80;;;8.80;99.90;;;;;;5099942;27;20046;-81
2022/01/03 00:48:12;;;;;;;13.73;1.45;;;8.50;99.90;;;;;;5099255;27;20478;-80
2022/01/03 00:50:38;;;;;;;18.25;2.20;;;8.80;99.90;;;;;;5099763;27;20242;-82
2022/01/03 00:53:04;;;;;;;18.23;2.92;;;8.70;99.90;;;;;;5128388;27;20039;-82
2022/01/03 00:55:30;;;;;;;17.85;2.45;;;8.70;99.90;;;;;;5098768;27;20043;-82
2022/01/03 00:58:01;;;;;;;15.55;2.60;;;8.80;99.90;;;;;;5105460;27;20035;-81
2022/01/03 01:00:31;;;;;;;17.52;2.65;;;8.70;99.90;;;;;;5103504;27;20043;-83
2022/01/03 01:03:11;;;;;;;13.80;3.15;;;8.10;99.90;;;;;;5116385;27;20078;-83
2022/01/03 01:05:42;;;;;;;16.33;2.70;;;8.70;99.90;;;;;;5116317;27;20071;-81
2022/01/03 01:08:08;;;;;;;17.50;2.60;;;8.70;99.90;;;;;;5117558;27;20050;-82
2022/01/03 01:10:36;;;;;;;19.23;2.80;;;8.50;99.90;;;;;;5117283;27;20390;-80
2022/01/03 01:13:03;;;;;;;18.60;3.03;;;8.70;99.90;;;;;;5108838;27;20034;-82
2022/01/03 01:15:29;;;;;;;22.95;4.32;;;8.70;99.90;;;;;;5117091;27;20039;-81
2022/01/03 01:17:56;;;;;;;17.83;2.85;;;8.70;99.90;;;;;;5098546;27;20039;-82
2022/01/03 01:20:24;;;;;;;19.75;2.30;;;8.70;99.90;;;;;;5099402;27;20043;-82
2022/01/03 01:22:50;;;;;;;15.75;2.97;;;8.80;99.90;;;;;;5115520;27;20390;-81
2022/01/03 01:27:49;;;;;;;16.73;2.92;;;9.30;99.90;;;;;;5092050;28;20165;-82
2022/01/03 01:30:23;;;;;;;15.98;2.20;;;8.80;99.90;;;;;;5092615;28;20436;-82
2022/01/03 01:32:59;;;;;;;17.38;2.35;;;9.00;99.90;;;;;;5075858;28;20135;-82
2022/01/03 01:35:28;;;;;;;23.75;3.20;;;8.30;99.90;;;;;;5091867;28;20554;-81
2022/01/03 01:37:55;;;;;;;19.70;2.55;;;8.80;99.90;;;;;;5074727;28;20048;-84
2022/01/03 01:40:23;;;;;;;17.00;2.90;;;8.50;99.90;;;;;;5092172;28;20395;-85
2022/01/03 01:42:49;;;;;;;14.40;2.55;;;10.00;99.90;;;;;;5075181;28;20036;-83
2022/01/03 01:45:21;;;;;;;19.42;2.90;;;8.70;99.90;;;;;;5074643;28;20043;-80
2022/01/03 01:47:48;;;;;;;17.75;2.55;;;9.00;99.90;;;;;;5091111;28;20032;-80
2022/01/03 01:50:14;;;;;;;23.48;3.30;;;8.70;99.90;;;;;;5091293;28;20043;-80
2022/01/03 01:52:43;;;;;;;20.77;3.33;;;8.90;99.90;;;;;;5091258;28;20039;-81
2022/01/03 01:55:12;;;;;;;18.17;3.17;;;8.90;99.90;;;;;;5069849;28;20056;-82
2022/01/03 01:58:03;;;;;;;22.98;3.50;;;9.00;99.90;;;;;;5074724;28;20459;-81
2022/01/03 02:00:31;;;;;;;20.40;3.65;;;9.00;99.90;;;;;;5091571;28;20118;-82
2022/01/03 02:03:05;;;;;;;21.98;3.42;;;9.00;99.90;;;;;;5091055;28;20047;-81
2022/01/03 02:05:37;;;;;;;23.23;3.35;;;9.00;99.90;;;;;;5074032;28;20044;-82
2022/01/03 02:08:16;;;;;;;22.10;3.42;;;9.10;99.90;;;;;;5063955;28;20051;-82
2022/01/03 02:11:03;;;;;;;22.45;3.28;;;9.10;99.90;;;;;;5088580;28;20044;-82
2022/01/03 02:13:29;;;;;;;22.45;3.22;;;8.90;99.90;;;;;;5086568;28;20063;-82
2022/01/03 02:16:03;;;;;;;22.15;3.50;;;9.20;99.90;;;;;;5088154;28;20107;-83
2022/01/03 02:18:29;;;;;;;;;;;9.20;99.90;;;;;;5091592;28;20403;-82
2022/01/03 02:20:54;;;;;;;25.73;3.85;;;9.10;99.90;;;;;;5090448;28;19924;-81
2022/01/03 02:23:20;;;;;;;24.23;3.30;;;9.10;99.90;;;;;;5074321;28;20056;-81
2022/01/03 02:25:46;;;;;;;26.17;4.13;;;10.80;99.90;;;;;;5089370;28;20066;-81
2022/01/03 02:28:12;;;;;;;17.08;2.78;;;9.00;99.90;;;;;;5111086;28;20055;-81
2022/01/03 02:30:38;;;;;;;26.33;4.82;;;9.00;99.90;;;;;;5094776;28;20071;-80
2022/01/03 02:33:04;;;;;;;19.38;3.97;;;7.50;99.90;;;;;;5110652;28;20063;-82
2022/01/03 02:35:35;;;;;;;25.67;3.80;;;9.00;99.90;;;;;;5111415;28;20604;-81
2022/01/03 02:38:00;;;;;;;18.05;3.35;;;9.00;99.90;;;;;;5094018;28;20043;-81
2022/01/03 02:40:26;;;;;;;18.40;2.08;;;8.90;99.90;;;;;;5088522;28;20048;-80
2022/01/03 02:42:52;;;;;;;26.40;5.88;;;9.00;99.90;;;;;;5110833;27;20044;-80
2022/01/03 02:45:23;;;;;;;24.15;4.32;;;9.00;99.90;;;;;;5094614;28;20044;-80
2022/01/03 02:47:52;;;;;;;25.60;4.18;;;9.00;99.90;;;;;;5111451;27;20071;-80
2022/01/03 02:50:19;;;;;;;22.48;4.05;;;8.80;99.90;;;;;;5121800;27;20050;-81
2022/01/03 02:52:46;;;;;;;25.90;3.95;;;8.90;99.90;;;;;;5094236;28;20122;-81
2022/01/03 02:55:14;;;;;;;25.00;3.92;;;8.90;99.90;;;;;;5093497;28;20032;-80
2022/01/03 02:57:43;;;;;;;28.50;4.85;;;8.80;99.90;;;;;;5098224;27;20054;-81
2022/01/03 03:00:16;;;;;;;19.60;3.15;;;8.80;99.90;;;;;;5111185;28;20426;-84
2022/01/03 03:02:42;;;;;;;26.27;3.40;;;8.80;99.90;;;;;;5095190;27;20039;-82
2022/01/03 03:05:09;;;;;;;17.08;2.85;;;8.80;99.90;;;;;;5106907;27;20085;-81
2022/01/03 03:07:36;;;;;;;17.25;3.05;;;8.90;99.90;;;;;;5114261;27;20511;-80
2022/01/03 03:10:06;;;;;;;29.30;3.60;;;8.80;99.90;;;;;;5094174;28;20027;-81
2022/01/03 03:12:32;;;;;;;20.42;3.88;;;8.90;99.90;;;;;;5097859;27;20031;-82
2022/01/03 03:14:57;;;;;;;20.17;3.90;;;9.20;99.90;;;;;;5094884;28;20119;-81
2022/01/03 03:17:23;;;;;;;23.75;4.18;;;8.80;99.90;;;;;;5116905;27;20100;-80
2022/01/03 03:19:58;;;;;;;21.25;3.25;;;8.80;99.90;;;;;;5115070;27;20436;-80
2022/01/03 03:22:24;;;;;;;;;;;8.80;99.90;;;;;;5116299;27;20074;-81
2022/01/03 03:24:50;;;;;;;22.42;3.55;;;8.80;99.90;;;;;;5095179;28;19968;-80
2022/01/03 03:27:16;;;;;;;19.70;3.15;;;8.80;99.90;;;;;;5093368;28;20051;-81
2022/01/03 03:29:44;;;;;;;27.17;3.17;;;8.80;99.90;;;;;;5109535;28;20036;-83
2022/01/03 03:32:10;;;;;;;21.88;4.53;;;8.80;99.90;;;;;;5085928;28;20184;-82
2022/01/03 03:34:36;;;;;;;28.52;3.95;;;8.70;99.90;;;;;;5100711;27;20665;-84
2022/01/03 03:37:02;;;;;;;20.60;3.47;;;8.70;99.90;;;;;;5095422;28;20039;-81
2022/01/03 03:39:29;;;;;;;29.88;4.88;;;8.70;99.90;;;;;;5092628;28;20045;-79
2022/01/03 03:41:54;;;;;;;20.25;3.53;;;8.70;99.90;;;;;;5095341;28;20047;-82
2022/01/03 03:44:20;;;;;;;33.40;4.03;;;8.70;99.90;;;;;;5097419;28;20048;-80
2022/01/03 03:46:45;;;;;;;21.85;3.13;;;8.60;99.90;;;;;;5093805;28;20040;-81
2022/01/03 03:49:11;;;;;;;33.83;4.57;;;8.50;99.90;;;;;;5091326;28;20044;-83
2022/01/03 03:51:38;;;;;;;36.10;4.65;;;8.50;99.90;;;;;;5114473;28;20063;-80
2022/01/03 03:54:04;;;;;;;32.17;5.10;;;8.50;99.90;;;;;;5109780;28;20085;-80
2022/01/03 03:56:31;;;;;;;27.80;3.28;;;8.60;99.90;;;;;;5095277;28;20123;-80
2022/01/03 03:58:56;;;;;;;25.85;4.35;;;8.60;99.90;;;;;;5092999;28;20050;-81
2022/01/03 04:01:22;;;;;;;25.80;4.10;;;10.20;99.90;;;;;;5110895;28;20040;-82
2022/01/03 04:03:48;;;;;;;35.35;4.22;;;8.40;99.90;;;;;;5094559;28;20039;-83
2022/01/03 04:06:13;;;;;;;25.67;4.28;;;8.60;99.90;;;;;;5092116;28;20157;-84
2022/01/03 04:08:39;;;;;;;24.70;3.88;;;9.70;99.90;;;;;;5110371;28;20104;-82
2022/01/03 04:11:04;;;;;;;28.85;4.25;;;8.60;99.90;;;;;;5092774;28;20142;-81
2022/01/03 04:13:30;;;;;;;25.00;3.70;;;8.60;99.90;;;;;;5093057;28;20039;-83
2022/01/03 04:15:56;;;;;;;28.90;4.45;;;8.50;99.90;;;;;;5096294;28;20040;-81
2022/01/03 04:18:21;;;;;;;21.75;2.90;;;10.00;99.90;;;;;;5097558;28;20039;-82
2022/01/03 04:20:47;;;;;;;34.65;5.28;;;8.70;99.90;;;;;;5114027;28;20031;-81
2022/01/03 04:23:13;;;;;;;22.38;3.08;;;8.70;99.90;;;;;;5096910;28;20068;-83
2022/01/03 04:25:38;;;;;;;21.05;4.03;;;8.70;99.90;;;;;;5095499;28;20056;-82
2022/01/03 04:28:04;;;;;;;29.52;4.82;;;8.80;99.90;;;;;;5097020;28;20051;-82
2022/01/03 04:30:30;;;;;;;36.40;4.35;;;8.80;99.90;;;;;;5113489;28;20157;-80
2022/01/03 04:32:56;;;;;;;32.88;4.65;;;8.80;99.90;;;;;;5096474;28;20126;-81
2022/01/03 04:35:21;;;;;;;31.85;5.18;;;8.20;99.90;;;;;;5096740;28;20043;-81
2022/01/03 04:37:47;;;;;;;29.52;4.95;;;8.80;99.90;;;;;;5096433;27;20050;-81
2022/01/03 04:40:13;;;;;;;34.08;5.10;;;8.80;99.90;;;;;;5112852;27;20128;-82
2022/01/03 04:42:38;;;;;;;32.17;4.30;;;8.70;99.90;;;;;;5097248;27;20083;-82
2022/01/03 04:45:05;;;;;;;26.55;3.95;;;8.70;99.90;;;;;;5097222;28;20055;-81
2022/01/03 04:47:30;;;;;;;30.70;5.18;;;8.80;99.90;;;;;;5096562;28;20380;-81
2022/01/03 04:49:56;;;;;;;34.90;5.88;;;10.50;99.90;;;;;;5096450;28;20050;-84
2022/01/03 04:52:21;;;;;;;24.90;3.70;;;8.50;99.90;;;;;;5096593;28;20035;-81
2022/01/03 04:54:47;;;;;;;27.73;4.50;;;8.60;99.90;;;;;;5097419;28;20073;-82
2022/01/03 04:57:13;;;;;;;30.40;4.97;;;8.70;99.90;;;;;;5112028;28;20036;-82
2022/01/03 04:59:38;;;;;;;36.25;5.05;;;8.70;99.90;;;;;;5098816;27;20051;-82
2022/01/03 05:02:06;;;;;;;29.90;5.18;;;8.80;99.90;;;;;;5089482;28;20043;-81
2022/01/03 05:04:32;;;;;;;26.23;3.08;;;8.50;99.90;;;;;;5115427;27;20046;-84
2022/01/03 05:06:58;;;;;;;30.58;4.32;;;8.70;99.90;;;;;;5121224;27;20047;-86
2022/01/03 05:09:23;;;;;;;27.83;3.92;;;9.70;99.90;;;;;;5112289;28;20486;-83
2022/01/03 05:11:49;;;;;;;20.10;3.72;;;8.60;99.90;;;;;;5095920;28;20074;-82
2022/01/03 05:14:15;;;;;;;35.70;4.95;;;7.70;99.90;;;;;;5097363;28;20119;-83
2022/01/03 05:16:40;;;;;;;34.40;5.07;;;8.60;99.90;;;;;;5095972;28;20046;-82
2022/01/03 05:19:06;;;;;;;31.08;4.85;;;8.70;99.90;;;;;;5096165;28;20097;-81
2022/01/03 05:21:31;;;;;;;26.35;4.97;;;9.50;99.90;;;;;;5114580;27;20467;-80
2022/01/03 05:23:57;;;;;;;30.85;5.00;;;8.60;99.90;;;;;;5096149;28;20047;-85
2022/01/03 05:26:23;;;;;;;28.48;4.60;;;8.50;99.90;;;;;;5116482;27;20126;-80
2022/01/03 05:28:48;;;;;;;29.13;4.57;;;8.60;99.90;;;;;;5115721;27;20058;-82
2022/01/03 05:31:14;;;;;;;23.48;4.40;;;8.50;99.90;;;;;;5112446;28;20071;-82
2022/01/03 05:33:40;;;;;;;31.02;5.20;;;8.60;99.90;;;;;;5112440;28;20032;-81
2022/01/03 05:36:06;;;;;;;26.95;5.30;;;8.60;99.90;;;;;;5115045;27;20727;-84
2022/01/03 05:38:32;;;;;;;28.75;5.18;;;8.60;99.90;;;;;;5112711;28;20032;-82
2022/01/03 05:40:58;;;;;;;23.08;3.88;;;9.90;99.90;;;;;;5112136;28;20384;-81
2022/01/03 05:43:23;;;;;;;26.33;4.50;;;8.60;99.90;;;;;;5112522;27;20039;-81
2022/01/03 05:45:49;;;;;;;33.88;6.00;;;8.60;99.90;;;;;;5095233;28;20088;-82
2022/01/03 05:48:15;;;;;;;29.92;5.15;;;8.60;99.90;;;;;;5112991;28;20043;-82
2022/01/03 05:50:41;;;;;;;30.58;4.80;;;8.60;99.90;;;;;;5111054;28;20044;-83
2022/01/03 05:53:06;;;;;;;25.92;4.88;;;8.50;99.90;;;;;;5112043;28;20043;-80
2022/01/03 05:55:32;;;;;;;35.53;4.75;;;9.80;99.90;;;;;;5094940;28;20134;-82
2022/01/03 05:57:58;;;;;;;36.67;5.70;;;8.60;99.90;;;;;;5093483;28;20058;-81
2022/01/03 06:00:25;;;;;;;25.90;5.30;;;8.50;99.90;;;;;;5095084;28;20475;-81
2022/01/03 06:02:57;;;;;;;27.20;5.05;;;8.60;99.90;;;;;;5112728;28;20040;-81
2022/01/03 06:08:14;;;;;;;29.73;5.47;;;8.50;99.90;;;;;;5101690;28;20047;-87
2022/01/03 06:10:41;;;;;;;29.55;5.57;;;8.50;99.90;;;;;;5111834;28;20050;-81
2022/01/03 06:13:07;;;;;;;32.88;5.70;;;8.50;99.90;;;;;;5111382;28;20486;-82
2022/01/03 06:15:33;;;;;;;36.22;5.15;;;8.30;99.90;;;;;;5094762;28;20057;-82
2022/01/03 06:17:58;;;;;;;40.22;6.57;;;8.50;99.90;;;;;;5094303;28;20035;-81
2022/01/03 06:20:24;;;;;;;38.33;6.80;;;8.20;99.90;;;;;;5093657;28;20103;-82
2022/01/03 06:22:49;;;;;;;36.25;4.00;;;9.90;99.90;;;;;;5090377;28;20044;-82
2022/01/03 06:25:15;;;;;;;30.25;5.28;;;8.50;99.90;;;;;;5085385;28;20051;-81
2022/01/03 06:27:41;;;;;;;36.80;6.68;;;8.50;99.90;;;;;;5102846;28;20515;-83
2022/01/03 06:30:08;;;;;;;38.60;5.55;;;8.40;99.90;;;;;;5088459;28;20483;-80
2022/01/03 06:32:34;;;;;;;29.67;5.00;;;8.40;99.90;;;;;;5101951;28;20048;-80
2022/01/03 06:34:59;;;;;;;31.10;5.93;;;8.40;99.90;;;;;;5104850;28;20447;-80
2022/01/03 06:37:25;;;;;;;33.97;5.13;;;7.90;99.90;;;;;;5095205;28;20065;-82
2022/01/03 06:39:50;;;;;;;34.08;5.45;;;8.30;99.90;;;;;;5094118;28;20426;-80
2022/01/03 06:42:16;;;;;;;36.20;5.45;;;8.40;99.90;;;;;;5111504;28;20031;-80
2022/01/03 06:44:43;;;;;;;25.08;4.18;;;8.30;99.90;;;;;;5110621;28;20035;-80
2022/01/03 06:47:09;;;;;;;37.50;5.82;;;9.40;99.90;;;;;;5093012;28;20039;-81
2022/01/03 06:49:35;;;;;;;37.78;5.53;;;8.40;99.90;;;;;;5094126;28;20141;-81
2022/01/03 06:52:01;;;;;;;39.08;5.57;;;8.30;99.90;;;;;;5117425;27;20118;-82
2022/01/03 06:54:26;;;;;;;37.05;6.07;;;8.80;99.90;;;;;;5093748;28;20032;-81
2022/01/03 06:56:52;;;;;;;27.67;4.18;;;8.30;99.90;;;;;;5094628;28;20044;-84
2022/01/03 06:59:18;;;;;;;31.58;4.97;;;10.40;99.90;;;;;;5113756;27;20042;-82
2022/01/03 07:01:44;;;;;;;37.63;5.40;;;8.30;99.90;;;;;;5092398;28;20044;-87
2022/01/03 07:04:09;;;;;;;40.42;4.88;;;10.00;99.90;;;;;;5097351;28;20039;-81
2022/01/03 07:06:36;;;;;;;28.73;4.70;;;8.20;99.90;;;;;;5115642;27;20504;-81
2022/01/03 07:09:13;;;;;;;22.88;4.80;;;8.20;99.90;;;;;;4793047;27;10001111;-81
2022/01/03 07:11:39;;;;;;;47.38;6.15;;;8.30;99.90;;;;;;5091871;28;20266;-86
2022/01/03 07:19:46;;;;;;;37.13;5.35;;;8.20;99.90;;;;;;5103910;28;20092;-82
2022/01/03 07:22:13;;;;;;;30.08;4.60;;;8.20;99.90;;;;;;5114115;27;20099;-81
2022/01/03 07:24:39;;;;;;;36.50;5.90;;;8.20;99.90;;;;;;5095598;28;20051;-82
2022/01/03 07:27:08;;;;;;;33.35;6.07;;;8.30;99.90;;;;;;5097043;28;20062;-81
2022/01/03 07:29:34;;;;;;;38.22;5.70;;;8.20;99.90;;;;;;5086348;28;20040;-81
2022/01/03 07:32:00;;;;;;;43.60;6.47;;;8.20;99.90;;;;;;5076880;28;20032;-81
2022/01/03 07:34:26;;;;;;;38.50;5.57;;;8.20;99.90;;;;;;5101776;28;20035;-81
2022/01/03 07:36:52;;;;;;;41.90;5.28;;;8.70;99.90;;;;;;5074801;28;20484;-84
2022/01/03 07:39:18;;;;;;;39.97;6.65;;;7.40;99.90;;;;;;5089662;28;20052;-83
2022/01/03 07:41:44;;;;;;;36.65;5.50;;;8.30;99.90;;;;;;5091212;28;20050;-80
2022/01/03 07:44:10;;;;;;;33.67;5.75;;;8.20;99.90;;;;;;5075242;28;20061;-80
2022/01/03 07:46:36;;;;;;;36.70;5.75;;;9.70;99.90;;;;;;5073004;28;20055;-80
2022/01/03 07:49:03;;;;;;;37.05;4.97;;;8.30;99.90;;;;;;5074120;28;20041;-87
2022/01/03 07:51:29;;;;;;;30.80;4.55;;;8.30;99.90;;;;;;5072903;28;20122;-87
2022/01/03 07:53:55;;;;;;;43.53;5.90;;;8.40;99.90;;;;;;5069192;28;20131;-79
2022/01/03 07:56:20;;;;;;;35.83;5.60;;;8.40;99.90;;;;;;5068023;28;20036;-80
2022/01/03 07:58:47;;;;;;;34.40;6.43;;;8.40;99.90;;;;;;5075395;28;20046;-81
2022/01/03 08:01:13;;;;;;;31.98;5.85;;;8.90;99.90;;;;;;5077063;28;20039;-85
2022/01/03 08:03:39;;;;;;;37.05;6.38;;;8.50;99.90;;;;;;5070110;28;20048;-80
2022/01/03 08:06:05;;;;;;;37.42;5.95;;;8.50;99.90;;;;;;5091203;28;20053;-88
2022/01/03 08:08:31;;;;;;;38.78;6.15;;;8.20;99.90;;;;;;5081446;28;20130;-88
2022/01/03 08:10:58;;;;;;;35.20;7.22;;;8.60;99.90;;;;;;5081372;28;20151;-80
2022/01/03 08:13:24;;;;;;;42.25;7.07;;;8.70;99.90;;;;;;5075981;28;20044;-83
2022/01/03 08:15:49;;;;;;;24.88;4.25;;;8.70;99.90;;;;;;5091532;28;20040;-80
2022/01/03 08:18:15;;;;;;;42.05;5.95;;;8.70;99.90;;;;;;5082060;28;20036;-80
2022/01/03 08:20:41;;;;;;;27.98;4.07;;;8.70;99.90;;;;;;5081487;28;20052;-84
2022/01/03 08:23:06;;;;;;;34.10;5.28;;;8.80;99.90;;;;;;5100165;28;20136;-85
2022/01/03 08:25:37;;;;;;;40.42;5.95;;;10.00;99.90;;;;;;5100575;28;20052;-84
2022/01/03 08:28:07;;;;;;;26.60;4.53;;;9.00;99.90;;;;;;4729655;28;10000184;-81
2022/01/03 08:30:33;;;;;;;35.05;6.55;;;8.90;99.90;;;;;;5087921;28;20835;-83
2022/01/03 08:32:59;;;;;;;31.35;5.00;;;8.80;99.90;;;;;;5080992;28;20036;-82
2022/01/03 08:35:25;;;;;;;33.22;5.20;;;9.00;99.90;;;;;;5095773;28;20128;-88
2022/01/03 08:37:51;;;;;;;29.27;5.90;;;8.70;99.90;;;;;;5096326;28;20091;-82
2022/01/03 08:40:17;;;;;;;25.58;4.72;;;8.80;99.90;;;;;;5081692;28;20498;-84
2022/01/03 08:42:43;;;;;;;36.75;5.18;;;8.80;99.90;;;;;;5078848;28;20036;-84
2022/01/03 08:45:09;;;;;;;24.77;4.70;;;8.80;99.90;;;;;;5083853;28;20043;-81
2022/01/03 08:47:35;;;;;;;32.63;4.90;;;8.90;99.90;;;;;;5091737;28;20132;-81
2022/01/03 08:50:01;;;;;;;32.08;6.47;;;8.90;99.90;;;;;;5098511;28;20131;-85
2022/01/03 08:52:26;;;;;;;24.40;5.10;;;8.80;99.90;;;;;;5078858;28;20098;-81
2022/01/03 08:54:52;;;;;;;34.65;5.43;;;8.90;99.90;;;;;;5095244;28;20044;-81
2022/01/03 08:57:18;;;;;;;24.85;5.20;;;8.90;99.90;;;;;;5099572;28;20059;-80
2022/01/03 08:59:44;;;;;;;27.38;4.75;;;9.70;99.90;;;;;;5097493;28;20044;-81
2022/01/03 09:02:09;;;;;;;41.60;5.55;;;9.00;99.90;;;;;;5100221;28;20055;-81
2022/01/03 09:04:35;;;;;;;25.70;5.30;;;9.00;99.90;;;;;;5085583;28;20031;-80
2022/01/03 09:07:01;;;;;;;31.95;5.22;;;9.10;99.90;;;;;;5101098;28;20485;-84
2022/01/03 09:09:29;;;;;;;26.67;4.38;;;9.00;99.90;;;;;;5102861;28;20123;-84
2022/01/03 09:11:55;;;;;;;42.88;6.90;;;9.10;99.90;;;;;;5102356;28;20055;-82
2022/01/03 09:14:20;;;;;;;36.22;5.28;;;10.70;99.90;;;;;;5081943;28;20039;-87
2022/01/03 09:16:46;;;;;;;29.95;5.53;;;9.10;99.90;;;;;;5099175;28;20092;-82
2022/01/03 09:19:11;;;;;;;33.20;6.50;;;9.00;99.90;;;;;;5101615;28;20085;-88
2022/01/03 09:21:37;;;;;;;33.05;6.90;;;8.90;99.90;;;;;;5101520;28;20046;-80
2022/01/03 09:24:31;;;;;;;28.05;4.68;;;9.00;99.90;;;;;;5101418;28;20044;-81
2022/01/03 09:29:34;;;;;;;24.27;4.20;;;9.00;99.90;;;;;;5128055;27;20130;-81
2022/01/03 09:32:00;;;;;;;32.55;5.65;;;9.10;99.90;;;;;;5122848;27;20721;-84
2022/01/03 09:34:26;;;;;;;28.73;3.75;;;9.10;99.90;;;;;;5113135;27;20063;-80
2022/01/03 09:36:53;;;;;;;35.35;6.75;;;9.00;99.90;;;;;;5112991;27;20050;-81
2022/01/03 09:39:18;;;;;;;32.05;5.15;;;9.00;99.90;;;;;;5096486;27;20098;-88
2022/01/03 09:42:01;;;;;;;27.50;4.65;;;9.10;99.90;;;;;;4748055;27;9999896;-81
2022/01/03 09:44:32;;;;;;;31.25;4.90;;;9.20;99.90;;;;;;5095899;27;20039;-80
2022/01/03 09:47:01;;;;;;;36.50;4.85;;;9.00;99.90;;;;;;5115256;27;20425;-85
2022/01/03 09:49:35;;;;;;;28.95;5.00;;;9.20;99.90;;;;;;5101143;27;20402;-86
2022/01/03 09:52:03;;;;;;;;;;;9.20;99.90;;;;;;5096281;27;20642;-81
2022/01/03 09:54:29;;;;;;;34.40;4.78;;;9.20;99.90;;;;;;5112199;27;19923;-85
2022/01/03 09:56:58;;;;;;;39.38;5.25;;;9.20;99.90;;;;;;5112279;27;20603;-81
2022/01/03 09:59:24;;;;;;;34.10;5.47;;;9.30;99.90;;;;;;5108301;27;20043;-83
2022/01/03 10:01:52;;;;;;;32.05;5.10;;;9.20;99.90;;;;;;5092949;27;20050;-80
2022/01/03 10:04:19;;;;;;;35.78;5.18;;;9.20;99.90;;;;;;5110473;27;20490;-80
2022/01/03 10:06:45;;;;;;;31.75;4.68;;;9.20;99.90;;;;;;5114902;27;20039;-83
2022/01/03 10:09:12;;;;;;;35.22;5.22;;;9.20;99.90;;;;;;5130676;27;20047;-78
2022/01/03 10:11:38;;;;;;;38.50;5.30;;;9.20;99.90;;;;;;5111670;27;20099;-87
2022/01/03 10:14:03;;;;;;;24.52;4.20;;;9.30;99.90;;;;;;5113346;27;20067;-81
2022/01/03 10:16:29;;;;;;;29.83;5.43;;;9.20;99.90;;;;;;5100368;27;20074;-82
2022/01/03 10:18:55;;;;;;;26.90;4.10;;;9.20;99.90;;;;;;4743621;27;10000271;-86
2022/01/03 10:21:37;;;;;;;31.67;5.82;;;9.70;99.90;;;;;;5113828;27;20103;-87
2022/01/03 10:24:04;;;;;;;28.77;4.53;;;9.20;99.90;;;;;;5095675;27;20043;-81
2022/01/03 10:26:30;;;;;;;33.53;5.65;;;9.30;99.90;;;;;;5112825;27;20107;-81
2022/01/03 10:29:22;;;;;;;28.77;5.00;;;9.30;99.90;;;;;;5114942;27;20051;-85
2022/01/03 10:31:51;;;;;;;31.65;4.63;;;9.30;99.90;;;;;;5108748;27;20039;-81
2022/01/03 10:34:19;;;;;;;36.17;6.55;;;9.20;99.90;;;;;;5098404;27;20478;-81
2022/01/03 10:36:47;;;;;;;30.60;5.40;;;9.30;99.90;;;;;;5098294;27;20038;-88
2022/01/03 10:39:26;;;;;;;39.00;5.22;;;9.40;99.90;;;;;;5097610;27;20092;-80
2022/01/03 10:42:16;;;;;;;36.33;5.50;;;9.40;99.90;;;;;;5115316;27;20074;-86
2022/01/03 10:44:42;;;;;;;32.83;5.30;;;9.40;99.90;;;;;;5090866;27;20091;-82
2022/01/03 10:47:13;;;;;;;38.33;6.13;;;9.40;99.90;;;;;;5097058;27;20124;-84
2022/01/03 10:49:40;;;;;;;30.80;3.78;;;9.40;99.90;;;;;;5107392;27;20065;-82
2022/01/03 10:52:19;;;;;;;24.63;3.78;;;9.50;99.90;;;;;;5097930;27;20134;-82
2022/01/03 10:55:04;;;;;;;35.80;5.32;;;9.60;99.90;;;;;;5107733;27;20374;-82
2022/01/03 10:57:53;;;;;;;25.50;4.05;;;9.70;99.90;;;;;;5114382;27;20115;-81
2022/01/03 11:00:42;;;;;;;19.58;3.78;;;9.60;99.90;;;;;;5113964;27;20052;-89
2022/01/03 11:03:27;;;;;;;21.13;4.85;;;9.50;99.90;;;;;;5097837;27;20038;-85
2022/01/03 11:05:58;;;;;;;29.65;4.70;;;9.80;99.90;;;;;;5108642;27;20387;-88
2022/01/03 11:11:12;;;;;;;28.52;4.50;;;9.70;99.90;;;;;;5114296;27;20047;-88
2022/01/03 11:13:48;;;;;;;25.30;5.05;;;9.60;99.90;;;;;;5122476;27;20053;-83
2022/01/03 11:16:14;;;;;;;30.67;5.30;;;9.70;99.90;;;;;;5097188;27;20039;-82
2022/01/03 11:18:47;;;;;;;27.13;4.63;;;9.70;99.90;;;;;;5114510;27;20431;-83
2022/01/03 11:21:21;;;;;;;29.65;6.05;;;9.80;99.90;;;;;;5126569;27;20134;-87
2022/01/03 11:24:02;;;;;;;27.13;5.28;;;10.90;99.90;;;;;;5107299;27;20058;-83
2022/01/03 11:26:30;;;;;;;31.52;4.65;;;9.80;99.90;;;;;;5096660;27;20514;-87
2022/01/03 11:28:57;;;;;;;27.25;4.88;;;9.80;99.90;;;;;;5113746;27;20138;-81
2022/01/03 11:31:23;;;;;;;35.50;5.95;;;9.80;99.90;;;;;;5114466;28;20046;-82
2022/01/03 11:33:51;;;;;;;23.63;5.45;;;9.90;99.90;;;;;;5114464;27;20078;-84
2022/01/03 11:36:19;;;;;;;28.77;5.15;;;9.80;99.90;;;;;;5096729;27;20440;-86
2022/01/03 11:38:45;;;;;;;22.13;4.07;;;9.90;99.90;;;;;;5097446;28;20489;-85
2022/01/03 11:41:12;;;;;;;27.02;4.35;;;9.80;99.90;;;;;;5114398;28;20126;-83
2022/01/03 11:43:43;;;;;;;28.63;4.15;;;9.70;99.90;;;;;;5113273;27;20043;-85
2022/01/03 11:46:10;;;;;;;26.17;4.40;;;9.80;99.90;;;;;;5113671;28;20051;-83
2022/01/03 11:48:36;;;;;;;34.50;5.82;;;9.90;99.90;;;;;;5113961;28;20078;-84
2022/01/03 11:51:08;;;;;;;30.00;4.85;;;9.90;99.90;;;;;;5113625;28;20051;-80
2022/01/03 11:53:36;;;;;;;30.83;4.80;;;9.80;99.90;;;;;;5113962;28;20148;-83
2022/01/03 11:56:10;;;;;;;28.77;4.88;;;9.90;99.90;;;;;;5096540;28;20069;-87
2022/01/03 11:59:06;;;;;;;24.20;5.20;;;9.90;99.90;;;;;;5113935;28;20521;-81
2022/01/03 12:04:35;;;;;;;28.88;4.07;;;9.80;99.90;;;;;;5112959;28;20411;-86
2022/01/03 12:07:09;;;;;;;30.60;4.63;;;9.80;99.90;;;;;;5096703;28;20180;-80
2022/01/03 12:09:37;;;;;;;21.48;4.65;;;9.80;99.90;;;;;;5113789;28;20035;-87
2022/01/03 12:12:04;;;;;;;29.48;4.15;;;9.80;99.90;;;;;;5113177;28;20065;-86
2022/01/03 12:14:44;;;;;;;28.50;5.75;;;10.00;99.90;;;;;;5113358;28;20042;-81
2022/01/03 12:17:15;;;;;;;25.63;4.18;;;9.90;99.90;;;;;;5112931;28;20050;-81
2022/01/03 12:19:46;;;;;;;30.75;4.68;;;9.80;99.90;;;;;;5113661;28;20168;-84
2022/01/03 12:22:21;;;;;;;46.95;5.55;;;9.80;99.90;;;;;;5113923;28;20035;-89
2022/01/03 12:24:54;;;;;;;34.95;5.03;;;9.80;99.90;;;;;;5105376;28;20058;-87
2022/01/03 12:27:21;;;;;;;24.27;4.10;;;9.90;99.90;;;;;;5113473;28;20134;-83
2022/01/03 12:30:14;;;;;;;29.50;4.72;;;9.90;99.90;;;;;;5088813;28;20032;-88
2022/01/03 12:32:45;;;;;;;21.63;3.35;;;9.90;99.90;;;;;;5093398;28;20415;-87
2022/01/03 12:35:15;;;;;;;30.77;5.28;;;10.00;99.90;;;;;;5097700;27;20176;-86
2022/01/03 12:37:51;;;;;;;23.63;3.55;;;9.90;99.90;;;;;;5117557;27;20043;-82
2022/01/03 12:40:18;;;;;;;40.97;5.13;;;10.00;99.90;;;;;;5117724;27;20098;-84
2022/01/03 12:42:52;;;;;;;29.63;4.35;;;10.00;99.90;;;;;;5100939;27;20383;-88
2022/01/03 12:45:32;;;;;;;;;;;9.90;99.90;;;;;;5116704;27;20050;-82
2022/01/03 12:48:10;;;;;;;31.48;4.50;;;9.90;99.90;;;;;;5093655;27;19971;-80
2022/01/03 12:50:41;;;;;;;25.20;3.80;;;10.00;99.90;;;;;;5100573;27;20043;-83
2022/01/03 12:53:09;;;;;;;28.23;4.97;;;10.10;99.90;;;;;;5116829;27;20038;-86
2022/01/03 12:55:37;;;;;;;27.08;5.38;;;10.10;99.90;;;;;;5117047;27;20171;-80
2022/01/03 12:58:26;;;;;;;32.03;4.47;;;10.10;99.90;;;;;;5117074;27;20039;-83
2022/01/03 13:01:20;;;;;;;33.30;5.03;;;10.10;99.90;;;;;;5108281;27;20039;-87
2022/01/03 13:03:52;;;;;;;20.50;3.72;;;10.10;99.90;;;;;;5117576;27;20118;-84
2022/01/03 13:06:29;;;;;;;29.05;4.53;;;10.60;99.90;;;;;;5134407;27;20118;-80
2022/01/03 13:08:55;;;;;;;28.27;4.55;;;10.10;99.90;;;;;;5109283;27;20039;-85
2022/01/03 13:11:22;;;;;;;28.58;5.28;;;10.00;99.90;;;;;;5117027;27;20042;-79
2022/01/03 13:13:50;;;;;;;25.83;4.20;;;10.10;99.90;;;;;;5099399;27;20088;-85